TimeEST,TemperatureF,Dew PointF,Humidity,Sea Level PressureIn,VisibilityMPH,Wind Direction,Wind SpeedMPH,Gust SpeedMPH,PrecipitationIn,Events,Conditions,WindDirDegrees,DateUTC
12:53 AM,45.0,39.0,80,30.34,10.0,NNE,6.9,-,N/A,,Clear,20,2013-11-04 05:53:00
1:53 AM,43.0,39.0,86,30.35,10.0,NE,6.9,-,N/A,,Clear,40,2013-11-04 06:53:00
2:53 AM,43.0,39.0,86,30.36,10.0,NNE,6.9,-,N/A,,Clear,20,2013-11-04 07:53:00
3:53 AM,45.0,39.9,82,30.40,10.0,North,10.4,-,N/A,,Clear,10,2013-11-04 08:53:00
4:53 AM,42.1,37.9,85,30.40,10.0,NE,6.9,-,N/A,,Clear,40,2013-11-04 09:53:00
5:53 AM,42.1,37.9,85,30.41,10.0,NNE,6.9,-,N/A,,Clear,20,2013-11-04 10:53:00
6:53 AM,42.1,36.0,79,30.41,10.0,NE,8.1,-,N/A,,Clear,40,2013-11-04 11:53:00
7:53 AM,48.0,36.0,63,30.43,10.0,NNE,12.7,-,N/A,,Clear,30,2013-11-04 12:53:00
8:53 AM,52.0,36.0,54,30.45,10.0,NNE,16.1,19.6,N/A,,Clear,30,2013-11-04 13:53:00
9:53 AM,57.0,36.0,45,30.47,10.0,NNE,13.8,-,N/A,,Clear,20,2013-11-04 14:53:00
10:53 AM,60.1,37.0,42,30.48,10.0,NNE,18.4,23.0,N/A,,Clear,30,2013-11-04 15:53:00
11:53 AM,62.1,37.9,41,30.46,10.0,ENE,10.4,20.7,N/A,,Clear,60,2013-11-04 16:53:00
12:53 PM,62.1,37.0,39,30.44,10.0,NE,11.5,21.9,N/A,,Partly Cloudy,40,2013-11-04 17:53:00
1:53 PM,63.0,36.0,37,30.43,10.0,NNE,12.7,-,N/A,,Clear,20,2013-11-04 18:53:00
2:53 PM,62.1,35.1,37,30.44,10.0,NNE,11.5,-,N/A,,Clear,30,2013-11-04 19:53:00
3:53 PM,60.1,34.0,38,30.44,10.0,NNE,11.5,19.6,N/A,,Clear,20,2013-11-04 20:53:00
4:53 PM,55.9,36.0,47,30.46,10.0,NNE,8.1,-,N/A,,Clear,30,2013-11-04 21:53:00
5:53 PM,50.0,35.1,57,30.47,10.0,NE,6.9,-,N/A,,Clear,40,2013-11-04 22:53:00
6:53 PM,46.9,34.0,61,30.47,10.0,NNE,6.9,-,N/A,,Clear,30,2013-11-04 23:53:00
7:53 PM,48.0,34.0,58,30.47,10.0,NNE,9.2,-,N/A,,Clear,20,2013-11-05 00:53:00
8:53 PM,45.0,34.0,65,30.48,10.0,NNE,6.9,-,N/A,,Clear,30,2013-11-05 01:53:00
9:53 PM,45.0,36.0,71,30.48,10.0,NNE,6.9,-,N/A,,Clear,30,2013-11-05 02:53:00
10:53 PM,46.0,36.0,68,30.46,10.0,NNE,11.5,-,N/A,,Clear,20,2013-11-05 03:53:00
11:53 PM,45.0,37.9,76,30.45,10.0,NNE,9.2,-,N/A,,Clear,20,2013-11-05 04:53:00